Time;durP1;ratioP1;P1;durP2;ratioP2;P2;SDS_P1;SDS_P2;PMS_P1;PMS_P2;Temp;Humidity;BMP_temperature;BMP_pressure;BME280_temperature;BME280_humidity;BME280_pressure;Samples;Min_cycle;Max_cycle;Signal;HPM_P1;HPM_P2
2022/05/16 00:02:10;;;;;;;1.90;1.40;;;21.30;57.10;;;;;;5035170;28;20209;-71
2022/05/16 00:04:44;;;;;;;2.00;1.17;;;21.30;57.00;;;;;;5053023;28;20221;-71
2022/05/16 00:07:11;;;;;;;1.30;1.20;;;21.30;57.10;;;;;;5034533;28;20175;-71
2022/05/16 00:09:38;;;;;;;2.22;1.40;;;21.30;57.10;;;;;;5018530;28;20206;-71
2022/05/16 00:12:07;;;;;;;1.83;1.40;;;21.30;57.00;;;;;;5034881;28;20178;-71
2022/05/16 00:14:33;;;;;;;1.50;1.40;;;21.30;57.00;;;;;;5035380;28;20661;-71
2022/05/16 00:16:59;;;;;;;1.50;1.40;;;21.20;57.00;;;;;;5035294;28;20280;-71
2022/05/16 00:19:25;;;;;;;1.30;1.30;;;21.30;57.00;;;;;;5052767;28;20227;-71
2022/05/16 00:21:51;;;;;;;1.50;1.40;;;21.30;57.00;;;;;;5018295;28;20191;-71
2022/05/16 00:24:18;;;;;;;1.55;1.45;;;21.30;57.60;;;;;;5035030;28;20206;-72
2022/05/16 00:26:44;;;;;;;1.48;1.38;;;21.20;56.90;;;;;;5052719;28;20191;-71
2022/05/16 00:29:10;;;;;;;2.17;1.17;;;21.30;57.10;;;;;;5018509;28;20273;-70
2022/05/16 00:31:37;;;;;;;1.27;1.10;;;21.30;57.20;;;;;;5035316;28;20174;-71
2022/05/16 00:34:03;;;;;;;1.88;1.30;;;21.20;57.10;;;;;;5033945;28;20187;-71
2022/05/16 00:36:28;;;;;;;1.50;1.40;;;21.20;57.20;;;;;;5018238;28;20206;-71
2022/05/16 00:38:54;;;;;;;1.70;1.60;;;21.30;57.20;;;;;;5034848;28;20191;-71
2022/05/16 00:41:20;;;;;;;1.40;1.30;;;21.20;57.10;;;;;;5034656;28;20272;-71
2022/05/16 00:43:57;;;;;;;1.70;1.60;;;21.20;57.20;;;;;;5052180;28;20191;-71
2022/05/16 00:46:31;;;;;;;1.55;1.45;;;21.20;57.20;;;;;;5034600;28;20178;-71
2022/05/16 00:49:00;;;;;;;1.40;1.30;;;21.20;57.20;;;;;;5034879;28;20174;-71
2022/05/16 00:51:31;;;;;;;1.60;1.50;;;21.20;57.20;;;;;;5017996;28;20198;-71
2022/05/16 00:54:12;;;;;;;1.48;1.33;;;21.20;57.10;;;;;;5034309;28;20167;-71
2022/05/16 00:56:39;;;;;;;1.63;1.40;;;21.20;57.10;;;;;;5034485;28;20240;-71
2022/05/16 00:59:06;;;;;;;1.38;1.27;;;21.30;57.10;;;;;;5034574;28;20182;-71
2022/05/16 01:07:03;;;;;;;1.40;1.20;;;21.20;57.10;;;;;;5034655;28;20278;-71
2022/05/16 01:09:31;;;;;;;2.58;1.13;;;21.20;57.20;;;;;;5018016;28;20202;-71
2022/05/16 01:11:58;;;;;;;1.42;1.33;;;21.20;57.20;;;;;;5034131;28;20191;-71
2022/05/16 01:14:52;;;;;;;1.23;1.10;;;21.20;57.10;;;;;;5017731;28;20190;-71
2022/05/16 01:17:19;;;;;;;1.58;1.45;;;21.20;57.00;;;;;;5017809;28;20178;-71
2022/05/16 01:19:47;;;;;;;2.53;1.52;;;21.20;57.10;;;;;;5038049;28;20206;-71
2022/05/16 01:22:43;;;;;;;1.77;1.30;;;21.20;57.20;;;;;;5038018;28;20190;-71
2022/05/16 01:25:16;;;;;;;1.55;1.40;;;21.20;57.20;;;;;;5055938;28;20205;-71
2022/05/16 01:27:43;;;;;;;1.58;1.48;;;21.20;57.20;;;;;;5055972;28;20267;-71
2022/05/16 01:30:11;;;;;;;1.65;1.55;;;21.20;57.20;;;;;;5021857;28;20576;-71
2022/05/16 01:32:37;;;;;;;1.20;1.10;;;21.20;57.30;;;;;;5037944;28;20194;-71
2022/05/16 01:35:03;;;;;;;1.50;1.35;;;21.20;57.30;;;;;;5021783;28;20186;-71
2022/05/16 01:38:18;;;;;;;1.20;1.20;;;21.20;57.30;;;;;;5038181;28;20243;-71
2022/05/16 01:40:15;;;;;;;1.50;1.40;;;21.20;57.80;;;;;;5037273;28;20213;-71
2022/05/16 01:42:41;;;;;;;1.27;1.10;;;21.20;57.30;;;;;;5037705;28;20195;-71
2022/05/16 01:45:08;;;;;;;1.15;1.15;;;21.20;57.30;;;;;;5037816;28;20217;-71
2022/05/16 01:47:34;;;;;;;1.40;1.30;;;21.20;57.30;;;;;;5021367;28;20194;-71
2022/05/16 01:50:00;;;;;;;1.45;1.35;;;21.20;57.30;;;;;;5021476;28;20237;-71
2022/05/16 01:52:26;;;;;;;1.40;1.30;;;21.20;57.30;;;;;;5037487;28;20226;-71
2022/05/16 01:54:52;;;;;;;1.50;1.40;;;21.20;57.30;;;;;;5021100;28;20186;-71
2022/05/16 01:57:18;;;;;;;1.48;1.38;;;21.20;57.30;;;;;;5027934;28;20282;-71
2022/05/16 01:59:44;;;;;;;1.58;1.48;;;21.20;57.30;;;;;;5052666;28;20305;-71
2022/05/16 02:02:09;;;;;;;1.40;1.30;;;21.10;57.30;;;;;;5075085;28;20174;-71
2022/05/16 02:04:35;;;;;;;1.80;1.50;;;21.20;57.40;;;;;;5051293;28;20213;-71
2022/05/16 02:07:01;;;;;;;1.70;1.60;;;21.20;57.40;;;;;;5026147;28;20195;-71
2022/05/16 02:09:27;;;;;;;1.60;1.50;;;21.20;57.40;;;;;;5017758;28;20214;-71
2022/05/16 02:11:53;;;;;;;1.67;1.58;;;21.20;57.40;;;;;;5017704;28;20187;-69
2022/05/16 02:14:19;;;;;;;1.40;1.30;;;21.20;57.40;;;;;;5001337;28;20198;-71
2022/05/16 02:16:46;;;;;;;1.45;1.35;;;21.20;57.40;;;;;;5001121;28;20194;-71
2022/05/16 02:19:12;;;;;;;1.40;1.30;;;21.20;57.40;;;;;;5017324;28;20257;-71
2022/05/16 02:24:40;;;;;;;1.30;1.20;;;21.20;57.40;;;;;;5017571;28;20319;-71
2022/05/16 02:27:07;;;;;;;1.40;1.30;;;21.20;57.40;;;;;;5017711;28;20176;-71
2022/05/16 02:29:34;;;;;;;1.55;1.40;;;21.20;57.40;;;;;;5033783;28;20203;-71
2022/05/16 02:32:01;;;;;;;1.58;1.48;;;21.20;57.50;;;;;;5034787;28;20179;-70
2022/05/16 02:34:27;;;;;;;1.42;1.33;;;21.20;57.50;;;;;;5017136;28;20223;-71
2022/05/16 02:36:53;;;;;;;1.50;1.30;;;21.20;57.50;;;;;;5000563;28;20230;-71
2022/05/16 02:39:20;;;;;;;1.63;1.40;;;21.20;57.60;;;;;;5000943;28;20182;-71
2022/05/16 02:41:46;;;;;;;1.55;1.45;;;21.20;57.60;;;;;;5000473;28;20203;-71
2022/05/16 02:44:13;;;;;;;1.52;1.42;;;21.20;57.60;;;;;;5017002;28;20207;-71
2022/05/16 02:46:40;;;;;;;2.65;1.55;;;21.20;57.60;;;;;;5017062;28;20176;-71
2022/05/16 02:49:07;;;;;;;1.40;1.30;;;21.20;57.60;;;;;;5033354;28;20605;-70
2022/05/16 02:51:33;;;;;;;1.23;1.23;;;21.20;57.60;;;;;;5016807;28;20237;-71
2022/05/16 02:53:59;;;;;;;1.60;1.50;;;21.20;57.60;;;;;;5034402;28;20183;-71
2022/05/16 02:56:25;;;;;;;1.35;1.25;;;21.20;57.60;;;;;;5034722;28;20214;-71
2022/05/16 02:58:51;;;;;;;1.48;1.38;;;21.20;57.70;;;;;;5016729;28;20184;-71
2022/05/16 03:01:17;;;;;;;1.45;1.35;;;21.20;57.70;;;;;;5034225;28;20199;-71
2022/05/16 03:03:43;;;;;;;1.25;1.15;;;21.20;57.70;;;;;;5016271;28;20293;-71
2022/05/16 03:06:10;;;;;;;1.35;1.25;;;21.20;57.70;;;;;;5016709;28;20245;-71
2022/05/16 03:08:37;;;;;;;1.40;1.30;;;21.20;57.70;;;;;;5000475;28;20343;-71
2022/05/16 03:11:04;;;;;;;1.50;1.40;;;21.20;57.80;;;;;;5000062;28;20214;-71
2022/05/16 03:13:31;;;;;;;1.60;1.50;;;21.20;57.80;;;;;;5033892;28;20171;-71
2022/05/16 03:15:59;;;;;;;1.60;1.50;;;21.20;57.80;;;;;;5016537;28;20249;-71
2022/05/16 03:18:29;;;;;;;2.03;1.33;;;21.20;57.80;;;;;;4999924;28;20187;-71
2022/05/16 03:20:54;;;;;;;1.50;1.40;;;21.10;57.80;;;;;;4999867;28;20298;-71
2022/05/16 03:23:21;;;;;;;1.90;1.50;;;21.10;57.80;;;;;;4999512;28;20283;-71
2022/05/16 03:25:47;;;;;;;1.48;1.38;;;21.20;57.90;;;;;;5016068;28;20195;-71
2022/05/16 03:28:13;;;;;;;1.45;1.35;;;21.20;57.90;;;;;;5016058;28;20187;-71
2022/05/16 03:30:39;;;;;;;1.58;1.48;;;21.10;57.80;;;;;;5016183;28;20214;-70
2022/05/16 03:33:06;;;;;;;1.55;1.45;;;21.20;58.00;;;;;;5015842;28;20187;-71
2022/05/16 03:35:32;;;;;;;2.75;1.77;;;21.20;58.20;;;;;;5016066;28;20198;-71
2022/05/16 03:37:58;;;;;;;1.60;1.50;;;21.10;57.90;;;;;;5016090;28;20195;-71
2022/05/16 03:40:43;;;;;;;1.50;1.40;;;21.10;57.90;;;;;;4999254;28;20211;-71
2022/05/16 03:43:14;;;;;;;1.40;1.30;;;21.10;57.90;;;;;;5016812;28;20658;-71
2022/05/16 03:45:41;;;;;;;1.63;1.52;;;21.20;58.00;;;;;;5015822;28;20187;-71
2022/05/16 03:48:23;;;;;;;1.60;1.50;;;21.10;57.90;;;;;;5069687;28;20555;-69
2022/05/16 03:50:49;;;;;;;1.33;1.23;;;21.10;58.00;;;;;;5048439;28;20210;-70
2022/05/16 03:53:15;;;;;;;1.95;1.50;;;21.20;58.00;;;;;;5048157;28;20174;-70
2022/05/16 03:55:40;;;;;;;1.70;1.35;;;21.10;57.90;;;;;;5031819;28;20183;-70
2022/05/16 03:58:06;;;;;;;1.75;1.35;;;21.10;58.00;;;;;;5048470;28;20194;-70
2022/05/16 04:00:32;;;;;;;1.42;1.30;;;21.10;58.00;;;;;;5064883;28;20295;-70
2022/05/16 04:02:58;;;;;;;1.40;1.30;;;21.10;58.00;;;;;;5031817;28;20218;-68
2022/05/16 04:05:24;;;;;;;1.77;1.30;;;21.10;58.00;;;;;;5031960;28;20217;-69
2022/05/16 04:07:51;;;;;;;1.45;1.35;;;21.10;58.00;;;;;;5048135;28;20212;-70
2022/05/16 04:10:18;;;;;;;1.77;1.67;;;21.10;58.00;;;;;;5064983;28;20210;-68
2022/05/16 04:12:44;;;;;;;1.40;1.30;;;21.20;58.10;;;;;;5048153;28;20290;-69
2022/05/16 04:15:12;;;;;;;1.58;1.48;;;21.10;58.10;;;;;;5064698;28;20183;-69
2022/05/16 04:17:38;;;;;;;1.83;1.50;;;21.10;58.10;;;;;;5064706;28;20251;-70
2022/05/16 04:20:05;;;;;;;2.15;1.60;;;21.10;58.10;;;;;;5048027;28;20268;-69
2022/05/16 04:22:31;;;;;;;1.50;1.40;;;21.10;58.20;;;;;;5047756;28;20244;-68
2022/05/16 04:24:57;;;;;;;1.92;1.70;;;21.10;58.10;;;;;;5047812;28;20190;-70
2022/05/16 04:27:23;;;;;;;1.60;1.50;;;21.10;58.20;;;;;;5047778;28;20213;-70
2022/05/16 04:29:48;;;;;;;1.65;1.55;;;21.20;58.30;;;;;;5031052;28;20206;-70
2022/05/16 04:32:14;;;;;;;1.65;1.55;;;21.10;58.20;;;;;;5047568;28;20239;-70
2022/05/16 04:34:40;;;;;;;1.70;1.60;;;21.10;58.80;;;;;;5064549;28;20222;-70
2022/05/16 04:37:06;;;;;;;1.50;1.40;;;21.10;58.30;;;;;;5064475;28;20234;-70
2022/05/16 04:39:31;;;;;;;1.80;1.70;;;21.10;58.30;;;;;;5047604;28;20233;-68
2022/05/16 04:44:42;;;;;;;1.40;1.30;;;21.10;58.40;;;;;;5044109;28;20282;-70
2022/05/16 04:47:09;;;;;;;1.30;1.20;;;21.10;58.40;;;;;;5028631;28;20342;-70
2022/05/16 04:49:36;;;;;;;1.60;1.45;;;21.10;58.40;;;;;;5027691;28;20211;-69
2022/05/16 04:52:02;;;;;;;1.73;1.40;;;21.10;58.40;;;;;;5027077;28;20729;-69
2022/05/16 04:54:29;;;;;;;1.60;1.50;;;21.20;58.50;;;;;;5027107;28;20655;-70
2022/05/16 04:56:55;;;;;;;2.35;1.60;;;21.10;58.40;;;;;;5027666;28;20226;-70
2022/05/16 04:59:22;;;;;;;1.45;1.35;;;21.10;58.40;;;;;;5016591;28;20187;-69
2022/05/16 05:01:48;;;;;;;1.50;1.40;;;21.10;58.60;;;;;;5014095;28;20546;-69
2022/05/16 05:04:15;;;;;;;1.80;1.70;;;21.10;58.50;;;;;;5013910;28;20199;-70
2022/05/16 05:06:41;;;;;;;1.58;1.48;;;21.20;58.60;;;;;;5014041;28;20215;-70
2022/05/16 05:09:08;;;;;;;3.15;1.67;;;21.20;58.70;;;;;;5014175;28;20648;-70
2022/05/16 05:14:34;;;;;;;1.83;1.55;;;21.10;58.60;;;;;;5030259;28;20178;-69
2022/05/16 05:17:09;;;;;;;1.63;1.40;;;21.20;58.70;;;;;;5014168;28;20220;-71
2022/05/16 05:19:40;;;;;;;1.60;1.50;;;21.20;58.70;;;;;;5030196;28;20210;-71
2022/05/16 05:22:07;;;;;;;2.03;1.30;;;21.20;58.70;;;;;;5030152;28;20184;-70
2022/05/16 05:24:32;;;;;;;1.50;1.40;;;21.20;58.70;;;;;;5014697;28;20266;-70
2022/05/16 05:26:58;;;;;;;1.60;1.50;;;21.20;58.80;;;;;;5013529;28;20263;-70
2022/05/16 05:29:25;;;;;;;1.40;1.30;;;21.20;58.80;;;;;;5013420;28;20234;-70
2022/05/16 05:31:51;;;;;;;2.17;1.55;;;21.20;58.90;;;;;;5013714;28;20234;-70
2022/05/16 05:34:17;;;;;;;1.65;1.45;;;21.20;58.80;;;;;;5013283;28;20180;-70
2022/05/16 05:36:43;;;;;;;1.67;1.58;;;21.20;58.90;;;;;;5014761;28;20263;-70
2022/05/16 05:39:16;;;;;;;1.65;1.55;;;21.20;58.90;;;;;;5013429;28;20751;-70
2022/05/16 05:41:42;;;;;;;1.92;1.75;;;21.20;59.00;;;;;;5013349;28;20176;-70
2022/05/16 05:44:08;;;;;;;2.00;1.90;;;21.20;58.90;;;;;;5012910;28;20192;-70
2022/05/16 05:46:40;;;;;;;1.92;1.83;;;21.20;59.00;;;;;;4997015;28;20230;-71
2022/05/16 05:49:07;;;;;;;3.33;1.70;;;21.10;58.90;;;;;;4997151;28;20212;-70
2022/05/16 05:51:33;;;;;;;2.05;1.65;;;21.20;59.00;;;;;;5013120;28;20216;-70
2022/05/16 05:53:58;;;;;;;2.17;1.98;;;21.20;59.00;;;;;;5012886;28;20647;-70
2022/05/16 05:56:24;;;;;;;1.90;1.80;;;21.20;59.00;;;;;;5013394;28;20230;-70
2022/05/16 05:58:50;;;;;;;1.52;1.42;;;21.10;59.00;;;;;;4996983;28;20188;-70
2022/05/16 06:01:16;;;;;;;1.80;1.65;;;21.20;59.00;;;;;;5012916;28;20208;-71
2022/05/16 06:03:42;;;;;;;1.70;1.60;;;21.20;59.10;;;;;;5012748;28;20215;-70
2022/05/16 06:06:07;;;;;;;1.83;1.40;;;21.20;59.20;;;;;;5012760;28;20180;-70
2022/05/16 06:08:33;;;;;;;2.45;1.52;;;21.20;59.20;;;;;;5012741;28;20192;-71
2022/05/16 06:11:00;;;;;;;1.73;1.63;;;21.20;59.20;;;;;;4995392;28;20200;-70
2022/05/16 06:13:28;;;;;;;2.35;1.67;;;21.20;59.20;;;;;;5012782;28;20199;-71
2022/05/16 06:15:54;;;;;;;2.10;1.58;;;21.20;59.30;;;;;;5012947;28;20211;-70
2022/05/16 06:18:20;;;;;;;2.55;1.80;;;21.20;59.30;;;;;;4996583;28;20283;-70
2022/05/16 06:20:46;;;;;;;1.75;1.30;;;21.20;59.30;;;;;;4996542;28;20295;-71
2022/05/16 06:23:11;;;;;;;1.90;1.60;;;21.20;59.30;;;;;;5012416;28;20260;-70
2022/05/16 06:25:42;;;;;;;1.80;1.70;;;21.20;59.30;;;;;;5012608;28;20192;-70
2022/05/16 06:28:23;;;;;;;2.13;2.00;;;21.10;59.30;;;;;;5012467;28;20208;-71
2022/05/16 06:30:51;;;;;;;2.05;1.80;;;21.10;59.30;;;;;;5012340;28;20265;-70
2022/05/16 06:33:20;;;;;;;2.38;2.03;;;21.20;59.50;;;;;;5012160;28;20195;-71
2022/05/16 06:35:48;;;;;;;1.70;1.60;;;21.20;59.50;;;;;;5012200;28;20216;-70
2022/05/16 06:38:21;;;;;;;2.22;1.77;;;21.20;59.50;;;;;;5012301;28;20179;-70
2022/05/16 06:40:48;;;;;;;2.13;1.90;;;21.20;59.60;;;;;;5012224;28;20254;-71
2022/05/16 06:43:17;;;;;;;3.13;1.45;;;21.10;59.40;;;;;;5013221;28;20192;-70
2022/05/16 06:45:44;;;;;;;1.67;1.48;;;21.20;59.60;;;;;;5012381;28;20238;-71
2022/05/16 06:48:11;;;;;;;3.83;1.48;;;21.20;59.50;;;;;;5012288;28;20258;-71
2022/05/16 06:50:38;;;;;;;2.05;1.40;;;21.10;59.60;;;;;;5012092;28;20208;-70
2022/05/16 06:53:05;;;;;;;2.38;1.60;;;21.20;59.60;;;;;;5011788;28;20404;-70
2022/05/16 06:55:32;;;;;;;2.00;1.75;;;21.20;59.70;;;;;;4995640;28;20640;-70
2022/05/16 06:57:57;;;;;;;2.10;1.90;;;21.10;59.60;;;;;;5013087;28;20183;-70
2022/05/16 07:00:26;;;;;;;3.20;1.90;;;21.20;59.70;;;;;;5013995;28;20211;-70
2022/05/16 07:02:52;;;;;;;2.67;1.75;;;21.20;59.70;;;;;;5031386;28;20191;-71
2022/05/16 07:05:18;;;;;;;1.80;1.70;;;21.20;59.80;;;;;;5015414;28;20230;-70
2022/05/16 07:07:44;;;;;;;1.67;1.58;;;21.20;59.80;;;;;;5031384;28;20300;-70
2022/05/16 07:10:10;;;;;;;1.95;1.60;;;21.20;59.80;;;;;;5031639;28;20682;-70
2022/05/16 07:12:36;;;;;;;1.67;1.58;;;21.20;59.80;;;;;;5015100;28;20187;-70
2022/05/16 07:15:03;;;;;;;2.72;1.75;;;21.20;59.80;;;;;;5031420;28;20592;-70
2022/05/16 07:17:29;;;;;;;2.03;1.77;;;21.20;59.80;;;;;;5031234;28;20210;-71
2022/05/16 07:19:55;;;;;;;2.22;1.77;;;21.20;59.90;;;;;;5014825;28;20599;-71
2022/05/16 07:22:22;;;;;;;1.98;1.83;;;21.20;59.90;;;;;;5014672;28;20191;-70
2022/05/16 07:24:51;;;;;;;1.90;1.70;;;21.20;59.90;;;;;;5031216;28;20214;-70
2022/05/16 07:30:07;;;;;;;2.03;1.88;;;21.20;60.00;;;;;;5031092;28;20217;-70
2022/05/16 07:32:45;;;;;;;1.60;1.50;;;21.20;59.90;;;;;;5030911;28;20175;-70
2022/05/16 07:35:22;;;;;;;1.80;1.52;;;21.20;60.00;;;;;;5031162;28;20187;-71
2022/05/16 07:37:48;;;;;;;3.15;1.75;;;21.20;60.00;;;;;;5015000;28;20182;-70
2022/05/16 07:40:15;;;;;;;2.20;1.90;;;21.20;60.10;;;;;;5030964;28;20779;-70
2022/05/16 07:42:42;;;;;;;1.75;1.65;;;21.20;60.00;;;;;;5030977;28;20187;-69
2022/05/16 07:45:09;;;;;;;1.75;1.65;;;21.30;60.10;;;;;;5031051;28;20677;-70
2022/05/16 07:47:34;;;;;;;1.88;1.67;;;21.20;60.20;;;;;;5030914;28;20211;-71
2022/05/16 07:50:01;;;;;;;1.95;1.60;;;21.30;60.30;;;;;;5014439;28;20265;-68
2022/05/16 07:52:28;;;;;;;2.08;1.75;;;21.30;60.30;;;;;;5031278;28;20247;-70
2022/05/16 07:54:54;;;;;;;2.95;2.08;;;21.30;60.40;;;;;;5014202;28;20189;-70
2022/05/16 07:57:22;;;;;;;1.92;1.83;;;21.30;60.50;;;;;;5014861;28;20183;-70
2022/05/16 07:59:49;;;;;;;3.20;1.95;;;21.30;60.50;;;;;;5030988;28;20210;-70
2022/05/16 08:02:14;;;;;;;2.38;1.83;;;21.30;60.40;;;;;;5014551;28;20199;-71
2022/05/16 08:04:41;;;;;;;1.65;1.55;;;21.30;60.50;;;;;;5014584;28;20190;-71
2022/05/16 08:07:08;;;;;;;1.70;1.60;;;21.30;60.60;;;;;;5030738;28;20219;-70
2022/05/16 08:12:34;;;;;;;2.00;1.90;;;21.30;60.50;;;;;;5032077;28;20174;-70
2022/05/16 08:15:01;;;;;;;2.55;1.80;;;21.30;60.40;;;;;;5031118;28;20176;-70
2022/05/16 08:17:29;;;;;;;1.80;1.70;;;21.30;60.60;;;;;;5030843;28;20726;-70
2022/05/16 08:19:58;;;;;;;2.47;1.60;;;21.30;60.30;;;;;;5031888;28;20683;-70
2022/05/16 08:22:33;;;;;;;2.65;1.98;;;21.30;60.60;;;;;;5014261;28;20183;-70
2022/05/16 08:25:00;;;;;;;2.30;2.10;;;21.30;60.50;;;;;;5031037;28;20215;-70
2022/05/16 08:27:26;;;;;;;3.13;2.10;;;21.30;60.70;;;;;;5030585;28;20222;-71
2022/05/16 08:29:53;;;;;;;3.45;2.10;;;21.30;60.70;;;;;;5030541;28;20215;-70
2022/05/16 08:32:23;;;;;;;2.13;1.80;;;21.40;60.70;;;;;;5031058;28;20183;-71
2022/05/16 08:35:02;;;;;;;2.30;2.10;;;21.30;60.60;;;;;;5017019;28;20237;-70
2022/05/16 08:40:14;;;;;;;2.17;1.98;;;21.30;60.60;;;;;;5034265;28;20207;-70
2022/05/16 08:43:01;;;;;;;2.17;1.98;;;21.40;60.80;;;;;;5034089;28;20274;-71
2022/05/16 08:45:50;;;;;;;2.47;1.92;;;21.40;60.60;;;;;;5034282;28;20279;-70
2022/05/16 08:48:32;;;;;;;2.40;1.90;;;21.40;61.00;;;;;;5034236;28;20215;-70
2022/05/16 08:51:06;;;;;;;2.47;1.95;;;21.40;60.80;;;;;;5017858;28;20229;-70
2022/05/16 08:53:39;;;;;;;2.60;2.05;;;21.40;60.80;;;;;;5033970;28;20180;-71
2022/05/16 08:56:09;;;;;;;2.40;2.20;;;21.40;61.00;;;;;;5035210;28;20175;-70
2022/05/16 08:59:11;;;;;;;2.78;2.58;;;21.40;61.00;;;;;;5034137;28;20183;-70
2022/05/16 09:01:51;;;;;;;3.70;3.10;;;21.40;61.00;;;;;;5029449;28;20210;-70
2022/05/16 09:04:36;;;;;;;6.18;4.53;;;21.40;61.00;;;;;;5035177;28;20262;-70
2022/05/16 09:07:16;;;;;;;4.03;3.05;;;21.40;61.00;;;;;;5033813;28;20653;-70
2022/05/16 09:10:07;;;;;;;3.15;2.50;;;21.40;61.20;;;;;;5033968;28;20304;-70
2022/05/16 09:13:03;;;;;;;3.78;2.90;;;21.50;61.10;;;;;;5016574;28;20188;-69
2022/05/16 09:15:53;;;;;;;3.20;2.90;;;21.50;61.00;;;;;;5034021;28;20187;-70
2022/05/16 09:18:55;;;;;;;2.50;2.28;;;21.50;61.00;;;;;;5034980;28;20258;-70
2022/05/16 09:21:51;;;;;;;2.75;2.50;;;21.50;61.10;;;;;;5034771;28;20218;-71
2022/05/16 09:24:35;;;;;;;2.60;2.40;;;21.40;61.20;;;;;;5034527;28;20168;-70
2022/05/16 09:27:13;;;;;;;3.40;2.38;;;21.40;61.10;;;;;;5017097;28;20294;-70
2022/05/16 09:29:45;;;;;;;3.05;2.38;;;21.40;61.50;;;;;;5033369;28;20243;-70
2022/05/16 09:32:38;;;;;;;5.32;2.20;;;21.40;61.30;;;;;;5033553;28;20167;-70
2022/05/16 09:35:38;;;;;;;2.63;2.42;;;21.40;61.30;;;;;;5033297;28;20175;-71
2022/05/16 09:38:06;;;;;;;4.50;2.50;;;21.40;61.50;;;;;;5033718;28;20204;-70
2022/05/16 09:40:40;;;;;;;2.58;2.38;;;21.40;61.30;;;;;;5033465;28;20195;-70
2022/05/16 09:43:14;;;;;;;3.83;2.63;;;21.50;62.20;;;;;;5034321;28;20163;-70
2022/05/16 09:45:49;;;;;;;4.00;2.70;;;21.50;61.40;;;;;;5032984;28;20184;-70
2022/05/16 09:48:22;;;;;;;2.42;2.22;;;21.40;61.40;;;;;;5016412;28;20344;-71
2022/05/16 09:51:09;;;;;;;3.08;2.35;;;21.40;61.60;;;;;;5033074;28;20203;-71
2022/05/16 09:53:41;;;;;;;5.13;2.22;;;21.40;62.10;;;;;;5016561;28;20187;-70
2022/05/16 09:56:26;;;;;;;4.10;2.90;;;21.40;62.30;;;;;;5016325;28;20190;-71
2022/05/16 09:59:00;;;;;;;3.25;2.60;;;21.50;62.50;;;;;;5032818;28;20195;-70
2022/05/16 10:01:44;;;;;;;2.58;2.38;;;21.40;62.40;;;;;;5032861;28;20211;-70
2022/05/16 10:04:20;;;;;;;2.90;2.60;;;21.40;62.40;;;;;;5032638;28;20194;-70
2022/05/16 10:07:04;;;;;;;3.40;2.30;;;21.50;62.50;;;;;;5033882;28;20229;-71
2022/05/16 10:09:50;;;;;;;2.47;2.28;;;21.50;63.20;;;;;;5028381;23;20324;-71
2022/05/16 10:12:23;;;;;;;2.85;2.65;;;21.50;63.00;;;;;;4990197;28;20170;-71
2022/05/16 10:14:49;;;;;;;3.22;2.45;;;21.40;63.30;;;;;;4989383;28;20189;-71
2022/05/16 10:17:29;;;;;;;3.60;2.40;;;21.40;63.50;;;;;;4989887;28;20196;-71
2022/05/16 10:20:04;;;;;;;2.88;2.40;;;21.50;63.40;;;;;;4986571;28;20787;-71
2022/05/16 10:22:31;;;;;;;2.50;2.10;;;21.40;63.30;;;;;;4970444;28;20705;-71
2022/05/16 10:24:59;;;;;;;3.03;2.40;;;21.50;63.40;;;;;;4955309;29;20198;-70
2022/05/16 10:27:38;;;;;;;3.47;2.15;;;21.50;63.60;;;;;;4986608;28;20214;-71
2022/05/16 10:30:20;;;;;;;6.00;2.78;;;21.50;63.80;;;;;;4970469;28;20221;-71
2022/05/16 10:36:13;;;;;;;3.42;3.13;;;21.50;64.40;;;;;;4955306;28;20217;-71
2022/05/16 10:39:03;;;;;;;2.70;2.50;;;21.50;64.20;;;;;;4970379;28;20202;-71
2022/05/16 10:42:10;;;;;;;2.63;2.42;;;21.50;63.90;;;;;;4954331;29;20222;-71
2022/05/16 10:44:44;;;;;;;3.00;2.70;;;21.50;64.30;;;;;;4970177;28;20669;-71
2022/05/16 10:47:15;;;;;;;3.75;2.60;;;21.50;64.30;;;;;;4953805;29;20241;-71
2022/05/16 10:50:18;;;;;;;3.70;2.60;;;21.50;64.90;;;;;;4970062;28;20690;-71
2022/05/16 10:52:53;;;;;;;3.20;2.63;;;21.40;64.30;;;;;;4969842;28;20189;-70
2022/05/16 10:55:19;;;;;;;4.82;2.72;;;21.50;64.50;;;;;;4972787;28;20217;-72
2022/05/16 10:57:45;;;;;;;3.28;2.97;;;21.40;64.10;;;;;;4970884;28;20217;-72
2022/05/16 11:00:18;;;;;;;3.00;2.70;;;21.40;64.30;;;;;;4953890;28;20245;-72
2022/05/16 11:03:10;;;;;;;3.38;3.08;;;21.40;64.10;;;;;;4953687;29;20329;-72
2022/05/16 11:06:11;;;;;;;3.38;2.80;;;21.40;63.80;;;;;;4978912;28;20193;-72
2022/05/16 11:09:01;;;;;;;3.92;3.00;;;21.40;64.60;;;;;;4947706;29;20215;-72
2022/05/16 11:12:08;;;;;;;3.42;3.13;;;21.40;64.80;;;;;;4954590;29;20693;-72
2022/05/16 11:14:50;;;;;;;3.08;2.85;;;21.40;64.40;;;;;;4953283;28;20329;-72
2022/05/16 11:17:36;;;;;;;4.10;3.10;;;21.40;64.50;;;;;;4953418;29;20181;-72
2022/05/16 11:20:27;;;;;;;3.72;3.15;;;21.40;64.90;;;;;;4937478;28;20252;-72
2022/05/16 11:23:13;;;;;;;3.80;3.03;;;21.40;64.90;;;;;;4953223;28;20205;-71
2022/05/16 11:25:50;;;;;;;4.57;3.00;;;21.40;64.50;;;;;;4937520;29;20225;-72
2022/05/16 11:28:23;;;;;;;6.55;3.30;;;21.40;64.50;;;;;;4949893;29;20287;-72
2022/05/16 11:31:19;;;;;;;3.50;2.90;;;21.40;64.60;;;;;;4935211;29;20301;-72
2022/05/16 11:33:53;;;;;;;4.18;3.22;;;21.40;64.60;;;;;;4933677;29;20214;-72
2022/05/16 11:36:28;;;;;;;4.03;3.00;;;21.40;64.70;;;;;;4966030;28;20183;-72
2022/05/16 11:39:16;;;;;;;3.42;2.83;;;21.40;64.70;;;;;;4967174;28;20209;-72
2022/05/16 11:42:09;;;;;;;3.60;3.00;;;21.40;64.90;;;;;;4941944;29;20221;-72
2022/05/16 11:45:39;;;;;;;5.15;2.95;;;21.40;64.40;;;;;;4960280;28;20567;-72
2022/05/16 11:48:40;;;;;;;4.05;2.65;;;21.40;64.60;;;;;;4951486;29;20208;-72
2022/05/16 11:51:43;;;;;;;4.68;2.88;;;21.40;64.60;;;;;;4966714;28;20280;-72
2022/05/16 11:54:13;;;;;;;4.28;3.05;;;21.40;64.60;;;;;;4962715;28;20193;-72
2022/05/16 12:03:12;;;;;;;5.03;2.90;;;21.40;64.80;;;;;;4967489;28;20194;-72
2022/05/16 12:05:49;;;;;;;4.10;3.00;;;21.40;64.80;;;;;;4964488;28;20186;-72
2022/05/16 12:08:42;;;;;;;4.22;2.97;;;21.40;64.60;;;;;;4973012;28;20583;-71
2022/05/16 12:11:10;;;;;;;3.05;2.78;;;21.40;65.20;;;;;;4992506;28;20223;-72
2022/05/16 12:13:59;;;;;;;4.82;3.20;;;21.40;64.90;;;;;;4938648;29;20183;-72
2022/05/16 12:16:42;;;;;;;3.60;3.22;;;21.40;64.70;;;;;;4954754;29;20217;-72
2022/05/16 12:19:25;;;;;;;3.55;2.72;;;21.40;64.20;;;;;;4973008;28;20237;-72
2022/05/16 12:22:08;;;;;;;4.32;2.90;;;21.40;64.50;;;;;;4941133;28;20191;-71
2022/05/16 12:24:52;;;;;;;4.47;2.75;;;21.50;64.60;;;;;;4940860;28;20241;-72
2022/05/16 12:27:30;;;;;;;5.30;2.78;;;21.50;64.90;;;;;;4956564;29;20248;-72
2022/05/16 12:30:02;;;;;;;3.20;2.90;;;21.50;65.60;;;;;;4956441;29;20214;-71
2022/05/16 12:32:30;;;;;;;3.25;2.95;;;21.50;64.70;;;;;;4956241;28;20190;-72
2022/05/16 12:35:06;;;;;;;4.68;3.00;;;21.50;64.80;;;;;;4956146;29;20186;-72
2022/05/16 12:37:35;;;;;;;4.57;2.92;;;21.50;65.00;;;;;;4972433;28;20201;-71
2022/05/16 12:40:31;;;;;;;3.58;3.17;;;21.50;64.90;;;;;;4972667;28;20217;-72
2022/05/16 12:43:35;;;;;;;3.88;3.30;;;21.50;65.00;;;;;;4956538;28;20183;-72
2022/05/16 12:46:38;;;;;;;4.18;3.00;;;21.50;64.80;;;;;;4957437;28;20223;-71
2022/05/16 12:49:43;;;;;;;3.13;2.83;;;21.50;65.40;;;;;;4957283;28;20186;-70
2022/05/16 12:52:59;;;;;;;3.58;2.90;;;21.50;65.30;;;;;;4940195;29;20189;-70
2022/05/16 12:55:50;;;;;;;3.00;2.70;;;21.50;65.20;;;;;;4956054;28;20249;-71
2022/05/16 12:58:27;;;;;;;2.78;2.55;;;21.50;65.60;;;;;;4957588;28;20257;-71
2022/05/16 13:01:29;;;;;;;3.17;2.75;;;21.50;65.70;;;;;;4956044;28;20230;-71
2022/05/16 13:04:55;;;;;;;3.92;2.97;;;21.50;65.50;;;;;;4955722;29;20272;-71
2022/05/16 13:08:03;;;;;;;3.72;3.00;;;21.60;65.70;;;;;;4941618;28;20217;-71
2022/05/16 13:11:06;;;;;;;3.90;2.88;;;21.50;65.80;;;;;;4957771;28;20304;-71
2022/05/16 13:14:12;;;;;;;3.25;2.53;;;21.60;65.80;;;;;;4956764;28;20201;-71
2022/05/16 13:16:54;;;;;;;3.38;2.97;;;21.60;66.00;;;;;;4968688;28;20208;-71
2022/05/16 13:19:24;;;;;;;3.13;2.65;;;21.60;66.20;;;;;;4968276;28;20358;-71
2022/05/16 13:21:55;;;;;;;3.25;2.95;;;21.60;66.20;;;;;;4952446;28;20181;-71
2022/05/16 13:24:24;;;;;;;3.28;2.55;;;21.60;66.00;;;;;;4937414;29;20172;-70
2022/05/16 13:29:40;;;;;;;4.38;2.60;;;21.60;65.90;;;;;;4968526;28;20207;-71
2022/05/16 13:32:17;;;;;;;2.75;2.53;;;21.60;66.10;;;;;;4969296;28;20187;-71
2022/05/16 13:34:51;;;;;;;3.65;2.30;;;21.60;66.20;;;;;;4951589;28;20198;-71
2022/05/16 13:37:27;;;;;;;4.05;2.25;;;21.60;66.30;;;;;;4968478;28;20205;-71
2022/05/16 13:40:06;;;;;;;3.65;2.38;;;21.60;66.30;;;;;;4936233;29;20214;-71
2022/05/16 13:42:38;;;;;;;2.95;2.40;;;21.60;66.20;;;;;;4937310;29;20175;-72
2022/05/16 13:45:08;;;;;;;2.92;2.55;;;21.60;66.30;;;;;;4967843;28;20576;-71
2022/05/16 13:47:41;;;;;;;3.40;2.35;;;21.60;66.10;;;;;;4935864;29;20215;-71
2022/05/16 13:50:27;;;;;;;2.67;2.13;;;21.60;66.30;;;;;;4935867;29;20211;-71
2022/05/16 13:52:54;;;;;;;3.25;2.13;;;21.60;66.20;;;;;;4937047;29;20171;-71
2022/05/16 13:55:23;;;;;;;3.78;2.80;;;21.60;66.40;;;;;;4935668;29;20190;-71